Hillsborough, North Carolina
Current Conditions -  °F | °C
As of 7:56 PM on Tuesday 25 Nov 2014 (Local Time) from KIGX Reporting Station
Broken Clouds Broken Clouds  
Wind Chill: 52°   Ceiling: 2600
Heat Index: 52°   Visibility: 10mi
Dew Point: 44°   Wind: 3mph
Humidity: 74%   Direction: 40°NE
Pressure: 30.08"   Gusts: NA
Location:  36.08°N, 79.1°W
Report Text: KIGX 260056Z AUTO 04003KT 10SM BKN026 11/07 A3008 RMK AO2 SLP182 T01110067
Loading
Personal Weather Stations






























Interactive Weather Map New forecast layout! Learn more

10-Day Weather Forecast

Advertisements
Track Severe Weather on mobile